Terminal Aerodrome Forecast
Issued by NWS

Home | Current Version | Previous Version | Text Only | Print | Product List | Glossary On
Versions: 1 2 3 4 5 6 7 8 9 10 11 12 13 14
196
FTUS46 KPDT 052326
TAFPSC
TAF
KPSC 052326Z 0600/0624 VRB06KT P6SM BKN110
     FM060400 22015G25KT P6SM VCSH BKN070 OVC100
     FM060900 23015G25KT P6SM SCT100
     FM061500 22012KT P6SM BKN150=

USA.gov is the U.S. government's official web portal to all federal, state and local government web resources and services.